Live aus Altenrhein
LIVE
LSZR 231650Z AUTO VRB02KT 9999 SCT///CB 29/17 Q1016

People´s Info Center:

Öffnungszeiten Mo-Fr, 8-18 Uhr

 

info@peoples.ch

 
Aus Österreich:

T: +43 (0)5572 203 610

 

Aus CH / LI / DE:

T: +41 (0)71 858 51 60

 

Webcam Flughafen St.Gallen-Altenrhein

Live-Bilder und Zeitraffer LSZR / ACH.

 

Live aus Altenrhein
LIVE
LSZR 231650Z AUTO VRB02KT 9999 SCT///CB 29/17 Q1016
Zeitraffer heute
2017-06-23 00:14:55
LSZR 222150Z AUTO VRB03KT CAVOK 28/15 Q1015
Zeitraffer gestern
2017-06-22 00:00:00
LSZR 212150Z AUTO 22002KT 9999 //////TCU 21/17 Q1017
Zeitraffer vor 3 Tagen
2017-06-20 00:14:55
LSZR 192150Z AUTO VRB02KT CAVOK 21/17 Q1019